Time;durP1;ratioP1;P1;durP2;ratioP2;P2;SDS_P1;SDS_P2;PMS_P1;PMS_P2;Temp;Humidity;BMP_temperature;BMP_pressure;BME280_temperature;BME280_humidity;BME280_pressure;Samples;Min_cycle;Max_cycle;Signal;HPM_P1;HPM_P2
2022/05/30 04:22:39;;;;;;;11.63;6.75;;;;;;;4.91;100.00;99724.44;5109364;27;20618;-74
2022/05/30 04:25:33;;;;;;;18.50;8.77;;;;;;;4.98;100.00;99722.84;5108757;28;20059;-77
2022/05/30 04:28:00;;;;;;;16.67;8.20;;;;;;;5.04;100.00;99716.97;5108218;28;20032;-74
2022/05/30 04:30:28;;;;;;;12.07;6.88;;;;;;;5.13;100.00;99731.06;5093263;28;20040;-76
2022/05/30 04:32:53;;;;;;;13.48;6.57;;;;;;;5.21;100.00;99725.03;5094410;28;20031;-77
2022/05/30 04:35:19;;;;;;;12.00;6.43;;;;;;;5.33;100.00;99721.19;5093462;28;20035;-77
2022/05/30 04:37:47;;;;;;;7.80;5.45;;;;;;;5.46;100.00;99724.25;5108163;28;20036;-76
2022/05/30 04:40:33;;;;;;;11.55;6.03;;;;;;;5.54;99.94;99721.72;5107928;28;20525;-76
2022/05/30 04:43:17;;;;;;;10.50;6.18;;;;;;;5.65;99.85;99725.91;5109056;28;20155;-76
2022/05/30 04:46:12;;;;;;;17.20;6.70;;;;;;;5.76;99.56;99725.66;5108173;28;20058;-76
2022/05/30 04:48:48;;;;;;;10.73;6.17;;;;;;;5.87;98.69;99729.88;5092607;28;20032;-76
2022/05/30 04:51:14;;;;;;;10.60;7.30;;;;;;;5.97;100.00;99722.66;5107777;28;20043;-76
2022/05/30 04:53:43;;;;;;;10.43;6.20;;;;;;;6.08;99.58;99734.81;5108645;28;20067;-76
2022/05/30 04:56:09;;;;;;;10.07;6.20;;;;;;;6.14;98.82;99736.81;5108679;28;20077;-76
2022/05/30 04:58:59;;;;;;;11.18;6.25;;;;;;;6.26;97.44;99740.88;5107563;28;20036;-76
2022/05/30 05:01:27;;;;;;;9.75;6.60;;;;;;;6.35;96.87;99736.44;5090928;28;20440;-76
2022/05/30 05:03:53;;;;;;;12.73;6.63;;;;;;;6.50;96.72;99740.13;5073533;28;20035;-76
2022/05/30 05:06:22;;;;;;;14.30;6.40;;;;;;;6.63;96.36;99745.78;5107379;28;20044;-76
2022/05/30 05:08:51;;;;;;;12.07;6.40;;;;;;;6.70;96.40;99749.47;5108002;28;20043;-77
2022/05/30 05:11:47;;;;;;;;;;;;;;;6.87;95.14;99745.06;5053289;28;20161;-76
2022/05/30 05:14:31;;;;;;;11.57;6.43;;;;;;;7.14;94.07;99743.94;5108509;28;19927;-76
2022/05/30 05:17:06;;;;;;;12.60;6.85;;;;;;;7.38;92.80;99753.75;5108946;28;20062;-77
2022/05/30 05:19:33;;;;;;;12.88;7.28;;;;;;;7.47;92.14;99758.06;5092220;28;20116;-77
2022/05/30 05:21:59;;;;;;;13.90;6.30;;;;;;;7.52;92.05;99752.28;5108392;28;20484;-77
2022/05/30 05:24:25;;;;;;;12.48;6.55;;;;;;;7.56;91.98;99757.09;5091448;28;20031;-77
2022/05/30 05:27:10;;;;;;;10.38;6.22;;;;;;;7.61;91.21;99768.00;5108704;28;20047;-77
2022/05/30 05:29:37;;;;;;;11.70;6.68;;;;;;;7.65;90.74;99763.22;5107452;28;20086;-78
2022/05/30 05:32:04;;;;;;;11.80;6.65;;;;;;;7.72;91.32;99763.38;5105284;28;20064;-78
2022/05/30 05:34:30;;;;;;;9.30;6.53;;;;;;;7.76;90.86;99776.13;5094567;28;20439;-77
2022/05/30 05:36:55;;;;;;;11.27;6.13;;;;;;;7.80;90.84;99776.63;5094314;28;20040;-77
2022/05/30 05:39:23;;;;;;;13.30;6.78;;;;;;;7.84;90.73;99773.47;5077246;28;20062;-77
2022/05/30 05:41:52;;;;;;;12.00;6.72;;;;;;;7.92;91.07;99767.31;5094126;28;20032;-78
2022/05/30 05:44:18;;;;;;;10.43;7.18;;;;;;;8.01;90.30;99776.09;5094386;28;20035;-77
2022/05/30 05:46:45;;;;;;;12.90;6.60;;;;;;;8.05;90.02;99774.78;5077662;28;20036;-78
2022/05/30 05:49:11;;;;;;;9.57;6.10;;;;;;;8.09;88.07;99770.78;5094253;28;20032;-78
2022/05/30 05:51:39;;;;;;;10.75;6.70;;;;;;;8.18;87.77;99769.78;5095685;28;20032;-78
2022/05/30 05:54:09;;;;;;;11.90;6.88;;;;;;;8.27;88.44;99770.56;5082355;28;20116;-78
2022/05/30 05:56:36;;;;;;;11.82;5.80;;;;;;;8.31;87.31;99772.72;5095490;28;20396;-77
2022/05/30 05:59:05;;;;;;;10.10;6.20;;;;;;;8.40;87.22;99778.84;5095484;28;20123;-77
2022/05/30 06:01:34;;;;;;;13.73;6.03;;;;;;;8.54;86.65;99774.66;5094607;28;20112;-79
2022/05/30 06:04:04;;;;;;;9.45;5.70;;;;;;;8.75;85.87;99771.44;5094870;28;20036;-78
2022/05/30 06:06:43;;;;;;;8.00;5.82;;;;;;;8.91;84.25;99774.00;5097104;28;20116;-79
2022/05/30 06:09:09;;;;;;;7.68;5.13;;;;;;;8.99;83.15;99773.97;5096880;28;20120;-77
2022/05/30 06:12:07;;;;;;;10.05;5.75;;;;;;;9.04;83.47;99770.78;5083796;28;20111;-78
2022/05/30 06:14:36;;;;;;;8.18;5.35;;;;;;;9.10;81.91;99767.44;5077539;28;20074;-77
2022/05/30 06:17:04;;;;;;;7.55;5.15;;;;;;;9.04;81.87;99774.28;5093686;28;20645;-78
2022/05/30 06:19:34;;;;;;;8.52;5.50;;;;;;;9.06;82.49;99766.94;5093564;28;20389;-79
2022/05/30 06:21:59;;;;;;;7.05;4.30;;;;;;;9.24;81.57;99775.47;5094643;28;20046;-78
2022/05/30 06:24:26;;;;;;;7.63;4.35;;;;;;;9.36;80.80;99775.91;5095913;28;20457;-78
2022/05/30 06:27:15;;;;;;;9.00;4.88;;;;;;;9.41;79.91;99775.38;5096571;28;20043;-77
2022/05/30 06:29:59;;;;;;;8.30;4.68;;;;;;;9.55;78.41;99777.28;5095134;28;20051;-77
2022/05/30 06:32:25;;;;;;;9.45;4.60;;;;;;;9.68;78.58;99776.66;5092505;28;20040;-76
2022/05/30 06:35:06;;;;;;;8.52;4.38;;;;;;;9.79;78.78;99784.22;5092298;28;20040;-77
2022/05/30 06:37:35;;;;;;;5.40;4.07;;;;;;;9.85;78.57;99777.38;5092124;28;20036;-73
2022/05/30 06:40:01;;;;;;;9.65;4.82;;;;;;;9.93;78.08;99770.13;5092047;28;20043;-72
2022/05/30 06:42:45;;;;;;;7.80;4.28;;;;;;;10.05;78.25;99784.66;5091836;28;20046;-72
2022/05/30 06:45:34;;;;;;;10.45;5.82;;;;;;;10.14;78.08;99781.91;5072332;28;20043;-73
2022/05/30 06:48:17;;;;;;;7.43;4.85;;;;;;;10.21;77.45;99785.50;5093340;28;20051;-77
2022/05/30 06:51:04;;;;;;;7.57;4.72;;;;;;;10.27;76.74;99793.63;5093564;28;20098;-76
2022/05/30 06:53:35;;;;;;;6.97;4.57;;;;;;;10.46;77.47;99781.59;5092428;28;20089;-78
2022/05/30 06:56:02;;;;;;;6.20;4.60;;;;;;;10.46;76.92;99791.44;5077292;28;20040;-78
2022/05/30 06:58:32;;;;;;;6.70;4.78;;;;;;;10.62;78.23;99790.41;5093711;28;20373;-79
2022/05/30 07:01:03;;;;;;;9.93;4.85;;;;;;;10.71;76.92;99790.13;5093575;28;20048;-78
2022/05/30 07:03:31;;;;;;;8.00;4.50;;;;;;;10.80;75.09;99793.53;5094069;28;20036;-79
2022/05/30 07:06:33;;;;;;;12.25;4.47;;;;;;;10.90;75.07;99788.75;5059546;28;20097;-78
2022/05/30 07:09:19;;;;;;;6.47;3.92;;;;;;;11.04;74.03;99793.22;5078750;28;20489;-78
2022/05/30 07:12:05;;;;;;;6.85;3.97;;;;;;;11.16;74.28;99793.56;5095920;28;20546;-78
2022/05/30 07:14:32;;;;;;;6.35;4.07;;;;;;;11.27;72.96;99800.22;5093673;28;20050;-78
2022/05/30 07:16:58;;;;;;;8.40;4.43;;;;;;;11.33;73.60;99794.13;5092555;28;20032;-79
2022/05/30 07:19:24;;;;;;;8.10;4.20;;;;;;;11.51;73.29;99796.38;5092449;28;20040;-78
2022/05/30 07:21:53;;;;;;;5.88;3.33;;;;;;;11.65;72.29;99790.16;5092014;28;20043;-78
2022/05/30 07:24:39;;;;;;;8.25;4.30;;;;;;;11.73;69.97;99799.84;5086082;28;20561;-77
2022/05/30 07:27:39;;;;;;;5.28;3.38;;;;;;;11.79;69.82;99785.75;5078587;28;20044;-77
2022/05/30 07:30:24;;;;;;;7.00;3.63;;;;;;;11.95;69.63;99791.69;5098129;28;20069;-77
2022/05/30 07:33:12;;;;;;;10.57;4.47;;;;;;;12.11;69.79;99793.25;5078060;28;20044;-78
2022/05/30 07:36:11;;;;;;;7.88;3.65;;;;;;;12.21;69.25;99788.41;5076490;28;20031;-77
2022/05/30 07:38:58;;;;;;;10.25;4.35;;;;;;;12.26;67.22;99793.16;5091519;28;20040;-78
2022/05/30 07:41:41;;;;;;;7.32;3.90;;;;;;;12.31;67.51;99790.72;5092325;28;20071;-78
2022/05/30 07:44:28;;;;;;;7.47;4.13;;;;;;;12.53;66.83;99796.00;5097260;28;20125;-78
2022/05/30 07:47:06;;;;;;;5.22;3.42;;;;;;;12.68;66.53;99792.16;5097024;28;20039;-78
2022/05/30 07:49:50;;;;;;;5.32;3.20;;;;;;;12.88;66.93;99781.56;5096393;28;20051;-78
2022/05/30 07:52:21;;;;;;;5.72;3.40;;;;;;;12.95;65.69;99789.63;5093689;28;20028;-78
2022/05/30 07:55:07;;;;;;;5.38;3.17;;;;;;;13.15;64.05;99777.13;5093026;28;20032;-77
2022/05/30 08:00:31;;;;;;;6.45;3.55;;;;;;;13.23;62.73;99781.50;5093935;28;20066;-79
2022/05/30 08:03:04;;;;;;;6.32;3.03;;;;;;;13.33;62.03;99783.81;5092719;28;20043;-77
2022/05/30 08:05:32;;;;;;;6.28;2.65;;;;;;;13.43;62.09;99779.72;5092334;28;20043;-77
2022/05/30 08:08:07;;;;;;;5.43;2.53;;;;;;;13.58;61.21;99779.53;5093989;28;20061;-77
2022/05/30 08:10:41;;;;;;;4.32;2.33;;;;;;;13.68;60.08;99781.81;5094948;28;20498;-79
2022/05/30 08:13:07;;;;;;;4.10;2.60;;;;;;;13.82;60.26;99789.66;5095256;28;20071;-77
2022/05/30 08:15:45;;;;;;;4.43;3.03;;;;;;;13.79;58.72;99787.38;5094738;28;20059;-78
2022/05/30 08:18:19;;;;;;;6.57;2.50;;;;;;;13.76;59.11;99787.78;5092347;28;20040;-78
2022/05/30 08:20:48;;;;;;;6.35;2.92;;;;;;;13.99;58.96;99787.38;5091815;28;20042;-77
2022/05/30 08:23:17;;;;;;;5.88;2.83;;;;;;;14.12;57.99;99789.22;5090560;28;20490;-78
2022/05/30 08:25:43;;;;;;;4.05;3.00;;;;;;;14.15;57.24;99787.97;5092899;28;20468;-78
2022/05/30 08:28:10;;;;;;;;;;;;;;;14.46;57.34;99788.16;5091099;28;20040;-78
2022/05/30 08:30:37;;;;;;;7.82;2.80;;;;;;;14.70;55.95;99786.69;5073535;28;20357;-78
2022/05/30 08:33:22;;;;;;;4.95;2.33;;;;;;;14.98;55.03;99781.00;5091520;28;20047;-77
2022/05/30 08:36:17;;;;;;;5.32;2.30;;;;;;;15.02;55.31;99778.72;5090439;28;20032;-77
2022/05/30 08:38:45;;;;;;;8.57;3.20;;;;;;;15.10;54.37;99779.28;5073800;28;20123;-77
2022/05/30 08:44:16;;;;;;;3.60;2.40;;;;;;;15.09;53.68;99782.19;5090386;28;20043;-77
2022/05/30 08:47:29;;;;;;;6.03;2.55;;;;;;;15.71;52.46;99784.13;5050867;28;20076;-78
2022/05/30 08:49:57;;;;;;;;;;;;;;;15.80;51.44;99778.50;5082931;28;20130;-77
2022/05/30 08:52:40;;;;;;;3.80;1.98;;;;;;;16.02;48.35;99783.25;5089614;28;20450;-76
2022/05/30 08:55:20;;;;;;;3.65;2.22;;;;;;;16.33;50.08;99776.16;5090165;28;20122;-76
2022/05/30 08:58:03;;;;;;;6.63;2.38;;;;;;;16.36;48.73;99777.56;5090177;28;20036;-75
2022/05/30 09:00:34;;;;;;;;;;;;;;;16.43;48.04;99775.63;5090673;28;20036;-75
2022/05/30 09:03:44;;;;;;;3.22;2.13;;;;;;;16.70;46.93;99785.09;5069833;28;20020;-77
2022/05/30 09:06:25;;;;;;;5.05;2.08;;;;;;;16.57;45.35;99773.66;5091717;28;20035;-77
2022/05/30 09:08:59;;;;;;;6.10;2.20;;;;;;;17.04;46.37;99780.13;5093055;28;20032;-77
2022/05/30 09:11:54;;;;;;;;;;;;;;;17.01;45.01;99775.19;5094174;28;20086;-77
2022/05/30 09:14:37;;;;;;;4.15;2.00;;;;;;;17.09;45.45;99773.03;5094995;28;19912;-77
2022/05/30 09:17:09;;;;;;;8.30;2.65;;;;;;;17.30;45.55;99769.03;5095064;28;20059;-74
2022/05/30 09:19:35;;;;;;;3.60;2.40;;;;;;;17.24;44.54;99774.50;5093766;28;20536;-75
2022/05/30 09:22:04;;;;;;;5.55;2.42;;;;;;;17.58;42.34;99764.88;5093546;28;20032;-76
2022/05/30 09:25:55;;;;;;;4.63;2.00;;;;;;;17.36;43.17;99769.97;5094057;28;20089;-77
2022/05/30 09:27:34;;;;;;;3.78;2.10;;;;;;;17.56;42.42;99770.50;5093550;28;20067;-76
2022/05/30 09:30:29;;;;;;;4.55;2.13;;;;;;;17.51;40.01;99759.59;5094870;28;20403;-76
2022/05/30 09:33:27;;;;;;;4.30;1.83;;;;;;;17.50;43.36;99768.72;5093192;28;20081;-76
2022/05/30 09:36:17;;;;;;;3.88;2.25;;;;;;;17.97;41.55;99762.63;5094814;28;20718;-76
2022/05/30 09:39:07;;;;;;;3.25;2.35;;;;;;;17.82;42.34;99750.44;5094736;28;20043;-75
2022/05/30 09:41:39;;;;;;;3.75;2.50;;;;;;;18.22;41.42;99757.03;5093294;28;20413;-76
2022/05/30 09:44:21;;;;;;;4.82;2.30;;;;;;;18.33;42.54;99759.72;5076806;28;20028;-76
2022/05/30 09:47:01;;;;;;;3.65;1.83;;;;;;;18.60;40.34;99751.94;5093279;28;20055;-77
2022/05/30 09:50:19;;;;;;;3.50;2.10;;;;;;;18.68;39.49;99753.47;5094459;28;20040;-77
2022/05/30 09:52:46;;;;;;;4.88;2.28;;;;;;;18.96;38.79;99748.13;5095104;28;20028;-76
2022/05/30 09:55:41;;;;;;;6.00;2.03;;;;;;;19.31;36.43;99743.66;5093288;28;20032;-77
2022/05/30 09:58:12;;;;;;;4.18;1.88;;;;;;;19.59;37.54;99743.63;5093012;28;20143;-77
2022/05/30 10:01:03;;;;;;;4.68;2.25;;;;;;;19.51;36.20;99733.22;5092183;28;20051;-78
2022/05/30 10:03:41;;;;;;;3.75;2.20;;;;;;;19.98;35.92;99739.13;5092623;28;20043;-77
2022/05/30 10:06:32;;;;;;;2.67;2.00;;;;;;;19.85;37.63;99742.16;5091959;28;20055;-76
2022/05/30 10:09:23;;;;;;;4.13;2.05;;;;;;;20.27;37.46;99744.41;5086497;28;20136;-75
2022/05/30 10:11:55;;;;;;;3.75;1.90;;;;;;;20.32;35.96;99736.38;5092538;28;20048;-77
2022/05/30 10:14:23;;;;;;;2.90;2.55;;;;;;;20.42;35.79;99741.94;5092785;28;20042;-76
2022/05/30 10:17:28;;;;;;;9.02;2.38;;;;;;;20.95;35.02;99740.47;5093075;28;20044;-76
2022/05/30 10:20:00;;;;;;;4.88;1.90;;;;;;;21.28;33.50;99739.50;5076180;28;20435;-78
2022/05/30 10:30:21;;;;;;;2.55;1.90;;;;;;;22.48;34.45;99748.00;5114876;22;20040;-72
2022/05/30 10:33:54;;;;;;;2.45;2.00;;;;;;;21.72;33.09;99742.06;5018890;28;20047;-73
2022/05/30 10:36:33;;;;;;;3.33;1.77;;;;;;;20.75;34.52;99751.88;5051853;28;20040;-73
2022/05/30 10:39:00;;;;;;;3.25;2.00;;;;;;;20.87;34.68;99749.03;5053166;28;20529;-71
2022/05/30 10:42:09;;;;;;;2.90;1.83;;;;;;;20.24;35.62;99753.84;5051490;28;20116;-72
2022/05/30 10:44:47;;;;;;;2.90;1.60;;;;;;;20.00;36.34;99757.81;5051138;28;20110;-72
2022/05/30 10:47:38;;;;;;;3.40;2.33;;;;;;;19.59;36.58;99751.72;5051632;28;20041;-72
2022/05/30 10:50:52;;;;;;;5.93;2.42;;;;;;;19.36;38.56;99749.13;5051480;28;20386;-72
2022/05/30 10:53:44;;;;;;;3.20;2.08;;;;;;;19.96;36.33;99754.78;4971321;28;20038;-72
2022/05/30 10:56:32;;;;;;;3.25;2.05;;;;;;;21.00;35.96;99747.81;4972443;28;20122;-72
2022/05/30 10:59:14;;;;;;;3.53;2.00;;;;;;;21.55;33.74;99744.88;5036194;28;20489;-72
2022/05/30 11:01:55;;;;;;;2.83;1.95;;;;;;;21.51;32.68;99751.88;5052339;28;20037;-72
2022/05/30 11:04:52;;;;;;;2.78;1.70;;;;;;;21.94;32.47;99752.81;5051370;28;20029;-72
2022/05/30 11:07:47;;;;;;;4.05;2.22;;;;;;;22.27;32.22;99751.69;5051180;28;20033;-72
2022/05/30 11:10:19;;;;;;;2.33;1.80;;;;;;;22.82;30.66;99752.22;5051180;28;20162;-75
2022/05/30 11:12:51;;;;;;;2.50;1.70;;;;;;;22.53;32.49;99741.00;5050709;28;20056;-75
2022/05/30 11:15:27;;;;;;;11.05;3.00;;;;;;;23.19;32.26;99746.69;5050998;28;20064;-74
2022/05/30 11:18:20;;;;;;;3.15;1.77;;;;;;;23.67;29.58;99748.16;5052147;28;20378;-74
2022/05/30 11:21:11;;;;;;;5.63;2.42;;;;;;;24.23;29.77;99745.38;5052286;28;20059;-74
2022/05/30 11:23:39;;;;;;;3.50;1.90;;;;;;;24.39;29.14;99751.66;5050598;28;20076;-75
2022/05/30 11:26:47;;;;;;;19.60;4.68;;;;;;;23.64;29.08;99743.25;5050743;28;20508;-76
2022/05/30 11:29:13;;;;;;;2.17;1.75;;;;;;;23.66;28.56;99749.22;5052064;28;20033;-76
2022/05/30 11:32:09;;;;;;;3.40;2.05;;;;;;;24.48;28.84;99747.25;5051170;28;20484;-74
2022/05/30 11:35:02;;;;;;;4.78;1.92;;;;;;;24.38;29.37;99752.72;5052045;28;20150;-75
2022/05/30 11:37:55;;;;;;;4.75;2.00;;;;;;;24.79;28.40;99750.69;5052028;28;20116;-75
2022/05/30 11:40:44;;;;;;;2.05;1.60;;;;;;;23.27;28.81;99738.81;5051749;28;20041;-76
2022/05/30 11:43:20;;;;;;;3.42;1.55;;;;;;;24.31;27.56;99747.53;5051430;28;20029;-74
2022/05/30 11:46:18;;;;;;;2.65;1.48;;;;;;;24.37;27.26;99756.53;5051748;28;20043;-74
2022/05/30 11:48:58;;;;;;;2.25;1.50;;;;;;;25.02;26.53;99746.47;5051760;28;20324;-74
2022/05/30 11:51:59;;;;;;;3.80;1.58;;;;;;;25.02;26.53;99751.94;5050202;28;20094;-75
2022/05/30 11:54:56;;;;;;;2.20;1.50;;;;;;;24.90;26.20;99754.16;5051673;28;20036;-74
2022/05/30 11:57:48;;;;;;;2.47;1.50;;;;;;;25.12;24.65;99749.19;5050396;28;20036;-74
2022/05/30 12:00:17;;;;;;;3.42;1.48;;;;;;;25.83;23.83;99742.47;5051437;28;20036;-74
2022/05/30 12:02:58;;;;;;;1.98;1.48;;;;;;;25.37;24.35;99752.88;5051178;28;20103;-74
2022/05/30 12:05:32;;;;;;;1.80;1.50;;;;;;;24.23;25.77;99755.44;5050247;28;20040;-74
2022/05/30 12:08:16;;;;;;;2.17;1.50;;;;;;;23.35;25.64;99748.38;5051581;28;20036;-74
2022/05/30 12:10:45;;;;;;;2.47;1.60;;;;;;;23.15;25.88;99749.16;5050127;28;20644;-74
2022/05/30 12:13:32;;;;;;;2.45;1.40;;;;;;;22.68;25.97;99749.19;5051035;28;20029;-74
2022/05/30 12:16:35;;;;;;;2.03;1.33;;;;;;;21.92;29.04;99747.66;5050125;28;20433;-74
2022/05/30 12:24:40;;;;;;;2.35;1.80;;;;;;;22.07;28.75;99749.63;5051309;28;20106;-74
2022/05/30 12:27:08;;;;;;;1.88;1.50;;;;;;;22.11;29.79;99749.97;5051352;28;20044;-74
2022/05/30 12:29:39;;;;;;;2.67;1.70;;;;;;;23.09;29.45;99754.84;5051411;28;20037;-75
2022/05/30 12:32:34;;;;;;;3.25;1.42;;;;;;;23.46;30.07;99752.72;5050737;28;20056;-74
2022/05/30 12:37:59;;;;;;;1.70;1.50;;;;;;;22.79;29.87;99750.06;5051268;28;20033;-74
2022/05/30 12:40:27;;;;;;;2.53;1.50;;;;;;;22.87;28.79;99755.81;5051163;28;20495;-74
2022/05/30 12:43:23;;;;;;;2.08;1.42;;;;;;;22.91;28.76;99751.50;5050719;28;20425;-75
2022/05/30 12:45:54;;;;;;;2.00;1.80;;;;;;;23.36;27.82;99749.19;5053597;28;20055;-74
2022/05/30 12:48:34;;;;;;;2.38;1.75;;;;;;;23.93;27.49;99748.13;5055062;28;20029;-75
2022/05/30 12:51:08;;;;;;;3.08;1.73;;;;;;;23.53;25.81;99736.94;5054891;28;20154;-75
2022/05/30 12:53:59;;;;;;;3.70;1.67;;;;;;;24.39;26.40;99751.66;5054668;28;20371;-75
2022/05/30 12:56:49;;;;;;;2.67;1.60;;;;;;;24.51;26.14;99745.88;5055039;28;20437;-75
2022/05/30 12:59:19;;;;;;;2.28;1.70;;;;;;;25.70;25.53;99743.91;5053679;28;20083;-74
2022/05/30 13:01:44;;;;;;;3.67;1.40;;;;;;;25.60;25.60;99740.41;5054555;28;20037;-75
2022/05/30 13:04:16;;;;;;;2.17;1.60;;;;;;;24.86;25.29;99743.03;5053522;28;20429;-75
2022/05/30 13:06:54;;;;;;;1.92;1.33;;;;;;;24.57;26.39;99744.78;5054807;28;20040;-75
2022/05/30 13:09:47;;;;;;;1.42;1.20;;;;;;;23.90;26.35;99749.50;5053507;28;20091;-75
2022/05/30 13:12:15;;;;;;;2.17;1.92;;;;;;;23.50;27.44;99737.50;5053289;28;20044;-75
2022/05/30 13:15:02;;;;;;;1.92;1.30;;;;;;;23.13;26.92;99747.75;5054673;28;20051;-74
2022/05/30 13:17:31;;;;;;;2.38;1.30;;;;;;;23.12;27.68;99740.69;5054227;28;20032;-75
2022/05/30 13:20:06;;;;;;;1.65;1.40;;;;;;;22.79;28.20;99740.03;5054265;28;20477;-74
2022/05/30 13:22:35;;;;;;;2.58;1.40;;;;;;;22.34;29.77;99737.91;5054387;28;20113;-75
2022/05/30 13:25:03;;;;;;;3.15;1.60;;;;;;;22.06;28.81;99739.88;5054616;28;20075;-74
2022/05/30 13:27:29;;;;;;;1.67;1.40;;;;;;;22.07;31.69;99748.81;5054623;28;20501;-74
2022/05/30 13:30:00;;;;;;;1.67;1.40;;;;;;;22.23;28.86;99738.91;5054258;28;20035;-74
2022/05/30 13:32:29;;;;;;;3.50;1.80;;;;;;;22.09;27.97;99738.56;5054198;28;20469;-74
2022/05/30 13:34:59;;;;;;;2.10;1.50;;;;;;;21.76;28.19;99742.34;5053258;28;20071;-73
2022/05/30 13:37:31;;;;;;;2.13;1.20;;;;;;;21.82;28.71;99739.41;5053081;28;20041;-74
2022/05/30 13:39:59;;;;;;;2.85;1.90;;;;;;;21.62;29.54;99733.84;5053107;28;20037;-73
2022/05/30 13:42:30;;;;;;;1.70;1.60;;;;;;;21.24;29.41;99734.81;5052695;28;20120;-74
2022/05/30 13:44:56;;;;;;;2.85;1.52;;;;;;;21.50;30.29;99730.47;5054286;28;20032;-73
2022/05/30 13:47:24;;;;;;;1.95;1.42;;;;;;;21.48;30.71;99732.63;5054119;28;20057;-74
2022/05/30 13:49:58;;;;;;;2.33;1.33;;;;;;;21.63;28.65;99727.34;5052621;28;20033;-74
2022/05/30 13:52:31;;;;;;;4.28;1.50;;;;;;;21.66;29.02;99724.13;5052768;28;20040;-73
2022/05/30 13:55:05;;;;;;;4.68;1.65;;;;;;;21.71;28.74;99734.16;5035580;28;20071;-74
2022/05/30 13:57:31;;;;;;;2.05;1.40;;;;;;;21.56;28.36;99721.31;5052652;28;20128;-74
2022/05/30 14:00:01;;;;;;;1.60;1.27;;;;;;;21.53;27.64;99727.25;5053660;28;20068;-75
2022/05/30 14:02:33;;;;;;;2.33;1.70;;;;;;;21.81;28.34;99726.13;5051994;28;20052;-75
2022/05/30 14:05:07;;;;;;;2.35;1.42;;;;;;;21.78;26.43;99722.06;5053741;28;20044;-75
2022/05/30 14:07:38;;;;;;;3.00;1.50;;;;;;;21.64;26.96;99718.13;5053649;28;20041;-74
2022/05/30 14:10:08;;;;;;;3.20;1.50;;;;;;;21.20;28.70;99722.88;5053532;28;20889;-75
2022/05/30 14:12:38;;;;;;;3.42;1.42;;;;;;;21.10;28.13;99718.13;5052949;28;20557;-72
2022/05/30 14:15:39;;;;;;;3.03;1.23;;;;;;;21.25;28.22;99723.69;5049632;28;20037;-71
2022/05/30 14:18:44;;;;;;;2.88;1.65;;;;;;;21.47;28.50;99725.59;4990681;28;20046;-71
2022/05/30 14:21:12;;;;;;;1.77;1.30;;;;;;;21.68;27.90;99719.25;5050679;28;20033;-71
2022/05/30 14:23:41;;;;;;;2.28;1.35;;;;;;;21.76;28.54;99718.78;5051849;28;20135;-71
2022/05/30 14:26:11;;;;;;;2.15;1.30;;;;;;;21.49;27.76;99723.44;5053475;28;20460;-71
2022/05/30 14:28:52;;;;;;;2.22;1.58;;;;;;;21.18;31.10;99722.28;5053466;28;20043;-71
2022/05/30 14:31:19;;;;;;;1.77;1.52;;;;;;;21.32;29.33;99726.25;5053448;28;20032;-72
2022/05/30 14:34:00;;;;;;;3.30;1.30;;;;;;;21.57;28.99;99723.75;5052782;28;20052;-71
2022/05/30 14:36:37;;;;;;;3.15;1.33;;;;;;;21.03;29.22;99721.06;5053141;28;20047;-71
2022/05/30 14:39:46;;;;;;;2.03;1.33;;;;;;;20.94;30.17;99722.59;5053186;28;20048;-72
2022/05/30 14:42:19;;;;;;;2.90;1.60;;;;;;;20.59;30.64;99728.38;5027338;28;20474;-71
2022/05/30 14:44:56;;;;;;;3.10;1.42;;;;;;;20.41;32.05;99725.94;5051767;28;20091;-70
2022/05/30 14:47:35;;;;;;;3.33;1.40;;;;;;;20.64;31.43;99720.31;5052938;28;20478;-71
2022/05/30 14:50:05;;;;;;;1.60;1.30;;;;;;;20.92;31.32;99723.91;5052887;28;20059;-70
2022/05/30 14:52:38;;;;;;;1.98;1.45;;;;;;;20.84;30.12;99727.88;5052603;28;20025;-71
2022/05/30 14:55:09;;;;;;;2.63;1.52;;;;;;;20.93;29.73;99725.53;5052309;28;20482;-71
2022/05/30 14:57:42;;;;;;;2.55;1.60;;;;;;;21.16;30.50;99724.44;5052606;28;20110;-71
2022/05/30 15:00:30;;;;;;;1.85;1.40;;;;;;;21.15;29.60;99723.63;5052655;28;20041;-72
2022/05/30 15:05:39;;;;;;;1.65;1.48;;;;;;;20.48;29.73;99724.75;5051717;28;20037;-72
2022/05/30 15:08:05;;;;;;;1.77;1.30;;;;;;;20.81;30.29;99729.22;5052441;28;20032;-71
2022/05/30 15:10:30;;;;;;;1.80;1.30;;;;;;;20.98;29.96;99726.41;5051202;28;20083;-71
2022/05/30 15:12:56;;;;;;;2.28;1.60;;;;;;;20.67;29.14;99733.38;5052093;28;20037;-71
2022/05/30 15:15:22;;;;;;;3.00;1.60;;;;;;;21.03;28.88;99733.78;5052204;28;20051;-71
2022/05/30 15:17:49;;;;;;;2.22;1.42;;;;;;;21.17;29.60;99723.34;5052367;28;20178;-71
2022/05/30 15:20:18;;;;;;;1.93;1.40;;;;;;;20.98;30.26;99737.22;5052300;28;20032;-71
2022/05/30 15:22:45;;;;;;;2.42;1.50;;;;;;;21.01;29.53;99722.38;5051941;28;20052;-71
2022/05/30 15:25:11;;;;;;;3.88;1.60;;;;;;;21.01;29.50;99722.38;5052228;28;20041;-71
2022/05/30 15:27:36;;;;;;;2.30;1.40;;;;;;;20.84;28.72;99731.41;5052155;28;20513;-71
2022/05/30 15:30:04;;;;;;;4.95;1.80;;;;;;;20.75;29.28;99730.22;5051877;28;20045;-71
2022/05/30 15:32:30;;;;;;;2.90;1.58;;;;;;;20.66;29.43;99734.41;5051822;28;20091;-71
2022/05/30 15:34:56;;;;;;;3.08;1.45;;;;;;;20.70;30.14;99732.84;5050734;28;20233;-71
2022/05/30 15:37:21;;;;;;;1.80;1.55;;;;;;;20.36;30.95;99725.88;5050638;28;20711;-71
2022/05/30 15:39:47;;;;;;;2.08;1.50;;;;;;;20.09;32.41;99731.19;5051937;28;20072;-71
2022/05/30 15:42:18;;;;;;;1.92;1.40;;;;;;;20.12;30.91;99731.50;5051301;28;20036;-71
2022/05/30 15:44:45;;;;;;;2.25;1.60;;;;;;;20.32;30.38;99734.47;5051803;28;20135;-71
2022/05/30 15:47:14;;;;;;;2.45;1.48;;;;;;;20.08;30.42;99734.94;5051740;28;20462;-70
2022/05/30 15:49:43;;;;;;;3.95;1.60;;;;;;;19.82;31.60;99733.72;5051645;28;20152;-72
2022/05/30 15:52:14;;;;;;;2.30;1.38;;;;;;;19.94;31.75;99737.16;5051441;28;20025;-71
2022/05/30 15:57:38;;;;;;;7.15;2.00;;;;;;;19.56;32.68;99735.16;5051495;28;20411;-71
2022/05/30 16:00:08;;;;;;;1.88;1.50;;;;;;;19.47;32.25;99732.03;5051059;28;20094;-71
2022/05/30 16:02:34;;;;;;;2.17;1.80;;;;;;;19.43;32.27;99730.88;5051061;28;20024;-72
2022/05/30 16:05:00;;;;;;;2.83;1.80;;;;;;;19.50;33.35;99736.97;5051411;28;20059;-71
2022/05/30 16:07:29;;;;;;;2.40;1.70;;;;;;;19.55;34.08;99736.22;5051333;28;20151;-71
2022/05/30 16:09:59;;;;;;;1.90;1.40;;;;;;;19.61;32.42;99732.56;5051426;28;20041;-71
2022/05/30 16:12:31;;;;;;;1.85;1.58;;;;;;;19.61;32.59;99727.16;5051042;28;20037;-72
2022/05/30 16:14:57;;;;;;;2.33;1.60;;;;;;;19.60;31.91;99731.75;5051417;28;20053;-72
2022/05/30 16:17:23;;;;;;;3.17;1.45;;;;;;;19.62;32.25;99720.69;5051148;28;20025;-72
2022/05/30 16:19:49;;;;;;;1.65;1.42;;;;;;;19.48;32.11;99733.69;5051213;28;20051;-72
2022/05/30 16:22:25;;;;;;;2.08;1.88;;;;;;;19.49;32.05;99733.44;5050908;28;20037;-72
2022/05/30 16:24:50;;;;;;;2.35;1.20;;;;;;;19.63;31.23;99727.78;5051373;28;20183;-71
2022/05/30 16:27:16;;;;;;;4.00;1.67;;;;;;;19.70;31.44;99723.84;5049900;28;20090;-71
2022/05/30 16:29:42;;;;;;;2.28;1.80;;;;;;;19.76;31.46;99728.25;5050367;28;20456;-71
2022/05/30 16:32:08;;;;;;;2.63;1.15;;;;;;;19.70;32.09;99726.53;5073664;22;20136;-76
2022/05/30 16:34:34;;;;;;;2.33;1.50;;;;;;;19.71;31.77;99730.88;5052009;28;20036;-76
2022/05/30 16:37:00;;;;;;;1.95;1.50;;;;;;;19.77;31.06;99724.50;5052964;28;20033;-76
2022/05/30 16:39:29;;;;;;;2.47;1.40;;;;;;;19.78;31.58;99733.41;5055045;28;20058;-77
2022/05/30 16:41:55;;;;;;;1.83;1.50;;;;;;;19.88;31.55;99730.03;5053332;28;20037;-76
2022/05/30 16:44:22;;;;;;;2.30;1.92;;;;;;;19.94;32.27;99729.88;5052877;28;20061;-77
2022/05/30 16:46:53;;;;;;;2.30;1.30;;;;;;;20.00;32.37;99722.66;5055795;28;20131;-77
2022/05/30 16:49:20;;;;;;;1.55;1.40;;;;;;;19.68;31.79;99725.13;5052622;28;20048;-78
2022/05/30 16:51:46;;;;;;;2.47;1.60;;;;;;;19.89;32.01;99727.13;5054586;28;20068;-77
2022/05/30 16:54:13;;;;;;;1.77;1.50;;;;;;;19.87;32.95;99739.22;5054261;28;20086;-77
2022/05/30 16:56:43;;;;;;;2.35;1.60;;;;;;;19.61;32.22;99725.28;5036316;28;20021;-76
2022/05/30 16:59:10;;;;;;;3.72;1.40;;;;;;;19.79;32.67;99735.03;5052029;28;20158;-77
2022/05/30 17:01:37;;;;;;;3.53;1.40;;;;;;;19.45;32.57;99743.09;5051072;28;20036;-76
2022/05/30 17:04:04;;;;;;;1.60;1.33;;;;;;;19.59;33.46;99742.81;5052566;28;20174;-76
2022/05/30 17:06:29;;;;;;;3.20;1.60;;;;;;;19.56;34.15;99737.84;5068055;28;20067;-76